Time;durP1;ratioP1;P1;durP2;ratioP2;P2;SDS_P1;SDS_P2;PMS_P1;PMS_P2;Temp;Humidity;BMP_temperature;BMP_pressure;BME280_temperature;BME280_humidity;BME280_pressure;Samples;Min_cycle;Max_cycle;Signal;HPM_P1;HPM_P2
2021/09/07 00:01:38;;;;;;;10.87;7.30;;;;;;;;;;768940;180;915999;-72
2021/09/07 00:04:04;;;;;;;8.40;5.85;;;;;;;;;;770466;180;915207;-71
2021/09/07 00:06:30;;;;;;;13.80;6.87;;;;;;;;;;768169;180;914714;-72
2021/09/07 00:08:56;;;;;;;10.37;6.50;;;;;;;;;;769264;180;915255;-71
2021/09/07 00:11:22;;;;;;;9.40;6.00;;;;;;;;;;772506;180;915085;-71
2021/09/07 00:13:47;;;;;;;10.70;7.53;;;;;;;;;;768466;180;1186575;-72
2021/09/07 00:16:13;;;;;;;10.18;7.20;;;;;;;;;;764734;181;915637;-71
2021/09/07 00:18:39;;;;;;;9.13;6.47;;;;;;;;;;764914;180;915664;-71
2021/09/07 00:21:05;;;;;;;11.60;6.83;;;;;;;;;;772584;180;914775;-71
2021/09/07 00:23:31;;;;;;;12.77;7.07;;;;;;;;;;765525;180;919514;-71
2021/09/07 00:25:57;;;;;;;11.70;7.63;;;;;;;;;;767286;180;919393;-71
2021/09/07 00:28:22;;;;;;;11.53;6.80;;;;;;;;;;773725;180;920131;-72
2021/09/07 00:30:48;;;;;;;9.60;6.70;;;;;;;;;;766728;180;919400;-72
2021/09/07 00:33:14;;;;;;;12.63;7.87;;;;;;;;;;765752;180;915543;-73
2021/09/07 00:35:40;;;;;;;10.57;7.10;;;;;;;;;;772025;180;919115;-72
2021/09/07 00:38:06;;;;;;;8.73;6.60;;;;;;;;;;769828;180;918193;-72
2021/09/07 00:40:32;;;;;;;19.00;7.62;;;;;;;;;;768613;180;920023;-72
2021/09/07 00:42:57;;;;;;;11.80;7.63;;;;;;;;;;765819;180;918350;-72
2021/09/07 00:45:23;;;;;;;12.83;8.07;;;;;;;;;;766761;182;918232;-72
2021/09/07 00:47:49;;;;;;;12.00;8.20;;;;;;;;;;766771;180;919158;-72
2021/09/07 00:50:16;;;;;;;11.35;7.37;;;;;;;;;;763624;180;1302320;-73
2021/09/07 00:52:41;;;;;;;10.85;7.78;;;;;;;;;;776935;180;918665;-72
2021/09/07 00:55:07;;;;;;;12.00;8.23;;;;;;;;;;771415;180;919221;-72
2021/09/07 00:57:33;;;;;;;7.50;6.40;;;;;;;;;;770955;180;920384;-72
2021/09/07 00:59:58;;;;;;;8.68;6.68;;;;;;;;;;771615;181;917279;-72
2021/09/07 01:02:24;;;;;;;10.40;6.60;;;;;;;;;;764150;180;918154;-72
2021/09/07 01:04:50;;;;;;;10.10;6.73;;;;;;;;;;761286;180;918533;-71
2021/09/07 01:07:16;;;;;;;9.40;6.45;;;;;;;;;;765853;180;919050;-71
2021/09/07 01:09:42;;;;;;;11.90;6.23;;;;;;;;;;771767;180;918154;-72
2021/09/07 01:12:08;;;;;;;10.00;6.17;;;;;;;;;;771860;180;918890;-72
2021/09/07 01:14:34;;;;;;;12.50;7.40;;;;;;;;;;768439;180;918953;-71
2021/09/07 01:16:59;;;;;;;10.47;7.40;;;;;;;;;;770596;180;919114;-71
2021/09/07 01:19:25;;;;;;;14.43;7.30;;;;;;;;;;767181;180;918577;-71
2021/09/07 01:21:51;;;;;;;16.43;7.90;;;;;;;;;;761957;181;971151;-72
2021/09/07 01:24:20;;;;;;;10.55;7.65;;;;;;;;;;771738;180;1021927;-71
2021/09/07 01:26:46;;;;;;;12.67;7.67;;;;;;;;;;770491;180;919357;-71
2021/09/07 01:29:12;;;;;;;9.48;6.93;;;;;;;;;;762120;180;919409;-71
2021/09/07 01:31:37;;;;;;;9.33;6.47;;;;;;;;;;765306;180;918667;-71
2021/09/07 01:34:03;;;;;;;14.23;8.00;;;;;;;;;;760345;182;918620;-72
2021/09/07 01:36:29;;;;;;;12.10;6.67;;;;;;;;;;766855;180;919266;-70
2021/09/07 01:38:55;;;;;;;10.70;7.67;;;;;;;;;;764058;180;919155;-71
2021/09/07 01:41:21;;;;;;;11.90;6.77;;;;;;;;;;766325;180;904648;-71
2021/09/07 01:43:48;;;;;;;12.37;8.10;;;;;;;;;;764581;180;918933;-71
2021/09/07 01:46:13;;;;;;;10.40;6.60;;;;;;;;;;764983;182;919034;-71
2021/09/07 01:48:39;;;;;;;13.50;8.20;;;;;;;;;;768833;180;919291;-71
2021/09/07 01:51:05;;;;;;;14.87;8.93;;;;;;;;;;766243;180;918985;-72
2021/09/07 01:53:31;;;;;;;11.47;7.23;;;;;;;;;;764070;180;918787;-71
2021/09/07 01:55:57;;;;;;;11.80;8.52;;;;;;;;;;766315;180;918401;-69
2021/09/07 01:58:23;;;;;;;10.07;6.73;;;;;;;;;;764258;183;979395;-71
2021/09/07 02:00:49;;;;;;;12.77;7.57;;;;;;;;;;767438;180;918494;-71
2021/09/07 02:03:15;;;;;;;11.60;8.27;;;;;;;;;;766025;180;919630;-71
2021/09/07 02:05:40;;;;;;;12.13;7.50;;;;;;;;;;769466;180;1125969;-71
2021/09/07 02:08:06;;;;;;;13.33;8.53;;;;;;;;;;770014;179;918879;-70
2021/09/07 02:10:32;;;;;;;12.67;8.23;;;;;;;;;;767745;180;919028;-70
2021/09/07 02:12:58;;;;;;;11.33;7.60;;;;;;;;;;777184;180;945454;-71
2021/09/07 02:15:24;;;;;;;13.30;8.17;;;;;;;;;;769936;180;918669;-71
2021/09/07 02:17:50;;;;;;;13.03;8.53;;;;;;;;;;765693;180;918544;-71
2021/09/07 02:20:15;;;;;;;12.23;9.50;;;;;;;;;;773039;180;918664;-71
2021/09/07 02:22:41;;;;;;;12.00;8.23;;;;;;;;;;769576;180;918617;-71
2021/09/07 02:25:08;;;;;;;16.07;8.87;;;;;;;;;;766340;180;918499;-71
2021/09/07 02:27:33;;;;;;;13.67;9.17;;;;;;;;;;764914;180;918224;-70
2021/09/07 02:29:59;;;;;;;18.17;8.70;;;;;;;;;;773017;180;918586;-71
2021/09/07 02:32:25;;;;;;;13.47;9.13;;;;;;;;;;765357;180;918850;-71
2021/09/07 02:34:51;;;;;;;12.50;8.50;;;;;;;;;;761984;180;924247;-70
2021/09/07 02:37:17;;;;;;;12.00;7.40;;;;;;;;;;773538;180;915158;-71
2021/09/07 02:39:43;;;;;;;13.03;8.00;;;;;;;;;;770095;180;918014;-70
2021/09/07 02:42:09;;;;;;;12.40;8.20;;;;;;;;;;768938;180;915843;-70
2021/09/07 02:44:34;;;;;;;12.80;8.40;;;;;;;;;;770279;180;914538;-71
2021/09/07 02:47:00;;;;;;;10.83;8.73;;;;;;;;;;768756;180;920991;-70
2021/09/07 02:49:26;;;;;;;18.62;7.72;;;;;;;;;;767203;180;921163;-70
2021/09/07 02:51:52;;;;;;;14.70;7.83;;;;;;;;;;767543;180;918499;-69
2021/09/07 02:54:18;;;;;;;12.60;8.10;;;;;;;;;;763311;181;919400;-70
2021/09/07 02:56:44;;;;;;;11.63;8.60;;;;;;;;;;767774;180;918767;-70
2021/09/07 02:59:09;;;;;;;14.10;9.60;;;;;;;;;;768076;180;918321;-69
2021/09/07 03:01:35;;;;;;;13.73;9.30;;;;;;;;;;771552;180;918740;-70
2021/09/07 03:04:01;;;;;;;16.03;9.30;;;;;;;;;;765402;180;915919;-70
2021/09/07 03:06:27;;;;;;;16.30;8.37;;;;;;;;;;762596;181;919117;-70
2021/09/07 03:08:53;;;;;;;13.17;8.90;;;;;;;;;;769771;180;1029329;-70
2021/09/07 03:11:19;;;;;;;22.00;9.90;;;;;;;;;;765511;180;1259821;-70
2021/09/07 03:13:44;;;;;;;15.57;10.13;;;;;;;;;;763317;180;919145;-70
2021/09/07 03:16:10;;;;;;;14.47;9.70;;;;;;;;;;773501;179;919737;-70
2021/09/07 03:18:36;;;;;;;16.03;9.60;;;;;;;;;;772146;179;919737;-70
2021/09/07 03:21:02;;;;;;;12.83;10.03;;;;;;;;;;766636;180;919667;-70
2021/09/07 03:23:28;;;;;;;14.83;10.33;;;;;;;;;;767205;180;918567;-70
2021/09/07 03:25:54;;;;;;;13.83;10.07;;;;;;;;;;772896;180;922708;-70
2021/09/07 03:28:19;;;;;;;13.27;9.20;;;;;;;;;;766149;180;1020468;-70
2021/09/07 03:30:45;;;;;;;11.17;9.10;;;;;;;;;;769426;180;917373;-70
2021/09/07 03:33:11;;;;;;;13.90;9.83;;;;;;;;;;771824;180;918878;-69
2021/09/07 03:35:37;;;;;;;23.43;9.97;;;;;;;;;;770954;180;918951;-70
2021/09/07 03:38:03;;;;;;;12.07;9.40;;;;;;;;;;761405;180;1022213;-70
2021/09/07 03:40:29;;;;;;;15.70;9.60;;;;;;;;;;771662;180;917599;-71
2021/09/07 03:42:54;;;;;;;12.80;9.43;;;;;;;;;;765179;181;917714;-70
2021/09/07 03:45:20;;;;;;;14.87;9.37;;;;;;;;;;769220;180;919035;-70
2021/09/07 03:47:46;;;;;;;12.57;9.20;;;;;;;;;;766704;180;887348;-70
2021/09/07 03:50:12;;;;;;;15.00;8.97;;;;;;;;;;769838;180;930584;-71
2021/09/07 03:52:38;;;;;;;13.10;8.40;;;;;;;;;;766406;180;918749;-70
2021/09/07 03:55:04;;;;;;;17.33;10.47;;;;;;;;;;766209;180;919930;-70
2021/09/07 03:57:30;;;;;;;14.47;9.23;;;;;;;;;;770867;180;919000;-70
2021/09/07 03:59:56;;;;;;;15.87;10.30;;;;;;;;;;768594;180;919665;-70
2021/09/07 04:02:21;;;;;;;15.93;10.13;;;;;;;;;;769494;180;918690;-70
2021/09/07 04:04:47;;;;;;;13.47;9.53;;;;;;;;;;771014;180;918246;-70
2021/09/07 04:07:13;;;;;;;18.60;11.37;;;;;;;;;;773421;180;920369;-70
2021/09/07 04:09:39;;;;;;;19.90;10.73;;;;;;;;;;768482;180;919311;-71
2021/09/07 04:12:06;;;;;;;14.52;9.82;;;;;;;;;;771405;180;918931;-69
2021/09/07 04:14:32;;;;;;;14.30;9.93;;;;;;;;;;760657;180;639489;-70
2021/09/07 04:16:57;;;;;;;24.23;10.90;;;;;;;;;;748245;184;919070;-71
2021/09/07 04:19:23;;;;;;;17.90;11.00;;;;;;;;;;747547;184;918252;-70
2021/09/07 04:21:49;;;;;;;16.37;10.77;;;;;;;;;;758955;184;918552;-72
2021/09/07 04:24:15;;;;;;;17.83;9.83;;;;;;;;;;750619;184;918550;-73
2021/09/07 04:26:41;;;;;;;15.25;10.48;;;;;;;;;;753419;184;918396;-71
2021/09/07 04:29:07;;;;;;;17.10;10.17;;;;;;;;;;765488;179;918259;-71
2021/09/07 04:31:33;;;;;;;21.23;11.87;;;;;;;;;;766746;180;918043;-71
2021/09/07 04:33:58;;;;;;;19.48;10.80;;;;;;;;;;764188;180;921997;-71
2021/09/07 04:36:24;;;;;;;13.07;10.30;;;;;;;;;;775790;180;918437;-71
2021/09/07 04:38:50;;;;;;;19.60;11.43;;;;;;;;;;767259;180;920335;-70
2021/09/07 04:41:16;;;;;;;19.13;10.80;;;;;;;;;;770697;180;918733;-70
2021/09/07 04:43:42;;;;;;;17.03;10.70;;;;;;;;;;770523;180;645132;-71
2021/09/07 04:46:08;;;;;;;19.93;12.47;;;;;;;;;;780075;180;636076;-71
2021/09/07 04:48:33;;;;;;;16.53;11.53;;;;;;;;;;776607;180;628027;-73
2021/09/07 04:50:59;;;;;;;19.00;11.23;;;;;;;;;;771971;180;623256;-71
2021/09/07 04:53:25;;;;;;;20.30;11.10;;;;;;;;;;777111;180;623401;-70
2021/09/07 04:55:51;;;;;;;18.00;10.57;;;;;;;;;;771740;180;660290;-71
2021/09/07 04:58:18;;;;;;;23.60;12.30;;;;;;;;;;771235;180;629046;-71
2021/09/07 05:00:43;;;;;;;19.67;10.77;;;;;;;;;;774133;180;626847;-70
2021/09/07 05:03:09;;;;;;;18.33;11.07;;;;;;;;;;773756;180;919331;-70
2021/09/07 05:05:36;;;;;;;16.83;11.00;;;;;;;;;;770300;180;918629;-71
2021/09/07 05:08:01;;;;;;;20.80;11.20;;;;;;;;;;767683;180;917332;-70
2021/09/07 05:10:27;;;;;;;24.95;12.73;;;;;;;;;;773761;180;919543;-70
2021/09/07 05:12:53;;;;;;;20.87;11.30;;;;;;;;;;768686;180;919743;-71
2021/09/07 05:15:19;;;;;;;24.48;11.73;;;;;;;;;;767523;180;979104;-70
2021/09/07 05:17:45;;;;;;;17.67;11.73;;;;;;;;;;772416;180;922048;-70
2021/09/07 05:20:11;;;;;;;21.83;12.00;;;;;;;;;;764899;180;900724;-70
2021/09/07 05:22:36;;;;;;;20.63;11.90;;;;;;;;;;764698;180;1018682;-71
2021/09/07 05:25:05;;;;;;;23.53;13.20;;;;;;;;;;771470;180;914599;-70
2021/09/07 05:27:28;;;;;;;19.33;11.70;;;;;;;;;;770433;180;918497;-70
2021/09/07 05:29:54;;;;;;;18.73;11.57;;;;;;;;;;764416;180;918992;-71
2021/09/07 05:32:22;;;;;;;29.00;13.30;;;;;;;;;;761937;180;930460;-70
2021/09/07 05:34:46;;;;;;;20.90;11.77;;;;;;;;;;764853;183;919412;-71
2021/09/07 05:37:12;;;;;;;17.70;12.07;;;;;;;;;;766653;180;918582;-70
2021/09/07 05:39:37;;;;;;;23.83;12.00;;;;;;;;;;765378;179;921993;-69
2021/09/07 05:42:04;;;;;;;19.97;12.50;;;;;;;;;;776127;180;916661;-70
2021/09/07 05:44:29;;;;;;;19.83;11.43;;;;;;;;;;768375;180;920995;-70
2021/09/07 05:46:55;;;;;;;23.53;12.43;;;;;;;;;;765106;180;1021290;-69
2021/09/07 05:49:21;;;;;;;19.20;13.25;;;;;;;;;;773159;180;942419;-70
2021/09/07 05:51:47;;;;;;;20.33;12.30;;;;;;;;;;768739;180;915215;-70
2021/09/07 05:54:13;;;;;;;19.48;11.43;;;;;;;;;;769643;180;918562;-70
2021/09/07 05:56:39;;;;;;;24.00;12.65;;;;;;;;;;772881;179;919157;-69
2021/09/07 05:59:05;;;;;;;28.13;13.23;;;;;;;;;;769001;180;923629;-70
2021/09/07 06:01:31;;;;;;;26.73;14.23;;;;;;;;;;766166;180;919437;-70
2021/09/07 06:03:57;;;;;;;20.30;13.53;;;;;;;;;;767358;181;918135;-70
2021/09/07 06:06:24;;;;;;;28.13;11.97;;;;;;;;;;776403;180;933754;-69
2021/09/07 06:08:49;;;;;;;18.53;12.37;;;;;;;;;;765217;180;918708;-70
2021/09/07 06:11:16;;;;;;;21.50;13.63;;;;;;;;;;759167;180;918633;-70
2021/09/07 06:13:40;;;;;;;20.23;13.63;;;;;;;;;;769998;181;918476;-69
2021/09/07 06:16:06;;;;;;;21.27;13.40;;;;;;;;;;771880;180;919266;-70
2021/09/07 06:18:32;;;;;;;22.97;14.43;;;;;;;;;;768123;180;919728;-71
2021/09/07 06:20:58;;;;;;;21.03;13.53;;;;;;;;;;766333;180;1790869;-71
2021/09/07 06:23:24;;;;;;;23.17;13.15;;;;;;;;;;766032;180;918727;-70
2021/09/07 06:25:50;;;;;;;29.97;15.70;;;;;;;;;;763942;180;1020107;-69
2021/09/07 06:28:16;;;;;;;21.00;13.90;;;;;;;;;;766048;180;918417;-70
2021/09/07 06:30:41;;;;;;;22.70;13.70;;;;;;;;;;772308;180;918905;-71
2021/09/07 06:33:07;;;;;;;25.60;14.23;;;;;;;;;;763321;180;1224841;-70
2021/09/07 06:35:33;;;;;;;21.55;14.48;;;;;;;;;;768670;180;934316;-70
2021/09/07 06:38:00;;;;;;;24.53;14.77;;;;;;;;;;775837;180;923303;-70
2021/09/07 06:40:26;;;;;;;19.40;13.63;;;;;;;;;;765296;180;918943;-70
2021/09/07 06:42:51;;;;;;;23.37;16.27;;;;;;;;;;766084;180;919883;-71
2021/09/07 06:45:17;;;;;;;27.80;18.87;;;;;;;;;;768106;180;919063;-72
2021/09/07 06:47:43;;;;;;;29.40;19.50;;;;;;;;;;764792;180;920801;-71
2021/09/07 06:50:11;;;;;;;61.93;36.83;;;;;;;;;;767155;180;918775;-71
2021/09/07 06:52:35;;;;;;;103.47;52.87;;;;;;;;;;763277;178;917048;-70
2021/09/07 06:55:01;;;;;;;270.73;180.63;;;;;;;;;;773412;180;919518;-72
2021/09/07 06:57:27;;;;;;;129.97;83.37;;;;;;;;;;768012;181;922437;-72
2021/09/07 06:59:53;;;;;;;110.17;64.13;;;;;;;;;;765938;181;920139;-72
2021/09/07 07:02:18;;;;;;;101.77;60.30;;;;;;;;;;774730;180;919930;-72
2021/09/07 07:04:44;;;;;;;71.17;45.73;;;;;;;;;;764735;180;919758;-73
2021/09/07 07:07:10;;;;;;;114.77;69.93;;;;;;;;;;765994;180;918514;-72
2021/09/07 07:09:36;;;;;;;114.53;69.83;;;;;;;;;;770915;180;919424;-72
2021/09/07 07:12:02;;;;;;;94.77;56.97;;;;;;;;;;770004;180;910207;-73
2021/09/07 07:14:28;;;;;;;64.47;43.58;;;;;;;;;;766541;180;1010982;-73
2021/09/07 07:16:53;;;;;;;54.67;38.33;;;;;;;;;;764304;180;1014661;-71
2021/09/07 07:19:19;;;;;;;32.83;21.73;;;;;;;;;;758923;183;910557;-73
2021/09/07 07:21:47;;;;;;;21.67;15.35;;;;;;;;;;760228;180;927962;-73
2021/09/07 07:24:11;;;;;;;25.33;17.43;;;;;;;;;;763034;180;948250;-73
2021/09/07 07:26:37;;;;;;;34.67;21.47;;;;;;;;;;773341;180;915928;-73
2021/09/07 07:29:03;;;;;;;30.80;21.37;;;;;;;;;;770891;180;914118;-74
2021/09/07 07:31:29;;;;;;;40.83;24.77;;;;;;;;;;765935;180;1013764;-73
2021/09/07 07:33:54;;;;;;;24.30;15.18;;;;;;;;;;760071;181;913848;-74
2021/09/07 07:36:20;;;;;;;13.30;9.80;;;;;;;;;;765411;180;915176;-74
2021/09/07 07:38:46;;;;;;;11.43;7.15;;;;;;;;;;764296;180;1214099;-75
2021/09/07 07:41:12;;;;;;;20.00;6.90;;;;;;;;;;776989;180;915779;-75
2021/09/07 07:43:44;;;;;;;9.23;6.00;;;;;;;;;;766119;180;912246;-75
2021/09/07 07:46:04;;;;;;;11.13;6.80;;;;;;;;;;764260;180;915545;-75
2021/09/07 07:48:29;;;;;;;10.67;7.20;;;;;;;;;;767327;180;918539;-74
2021/09/07 07:50:55;;;;;;;11.05;6.57;;;;;;;;;;770432;180;919475;-74
2021/09/07 07:53:21;;;;;;;9.10;5.97;;;;;;;;;;765575;180;1122535;-76
2021/09/07 07:55:47;;;;;;;10.23;7.40;;;;;;;;;;770169;180;918633;-75
2021/09/07 07:58:13;;;;;;;8.97;5.63;;;;;;;;;;769860;180;918689;-73
2021/09/07 08:00:39;;;;;;;11.43;5.20;;;;;;;;;;763890;180;918689;-75
2021/09/07 08:03:04;;;;;;;8.30;5.27;;;;;;;;;;770647;180;918812;-75
2021/09/07 08:05:30;;;;;;;15.00;5.80;;;;;;;;;;768089;180;1021480;-75
2021/09/07 08:07:56;;;;;;;10.52;6.40;;;;;;;;;;768259;180;919973;-76
2021/09/07 08:10:22;;;;;;;7.33;5.03;;;;;;;;;;766093;180;918755;-75
2021/09/07 08:12:48;;;;;;;7.40;5.40;;;;;;;;;;769821;180;920078;-75
2021/09/07 08:15:14;;;;;;;11.33;6.33;;;;;;;;;;765240;182;918338;-75
2021/09/07 08:17:39;;;;;;;9.57;6.10;;;;;;;;;;769526;180;919113;-75
2021/09/07 08:20:06;;;;;;;8.63;5.10;;;;;;;;;;769194;180;919018;-75
2021/09/07 08:22:31;;;;;;;12.17;5.70;;;;;;;;;;769401;180;918904;-74
2021/09/07 08:24:58;;;;;;;9.70;5.33;;;;;;;;;;766687;180;918955;-75
2021/09/07 08:27:23;;;;;;;8.07;5.30;;;;;;;;;;765403;180;930755;-77
2021/09/07 08:29:49;;;;;;;8.00;5.67;;;;;;;;;;768137;180;953528;-75
2021/09/07 08:32:16;;;;;;;8.63;4.70;;;;;;;;;;769004;180;918230;-74
2021/09/07 08:34:41;;;;;;;6.80;4.40;;;;;;;;;;769427;180;918761;-73
2021/09/07 08:37:07;;;;;;;8.65;4.25;;;;;;;;;;771982;180;918108;-73
2021/09/07 08:39:33;;;;;;;8.17;5.20;;;;;;;;;;768260;180;918804;-74
2021/09/07 08:41:59;;;;;;;6.53;3.83;;;;;;;;;;766522;180;919436;-75
2021/09/07 08:44:25;;;;;;;8.97;4.77;;;;;;;;;;763845;180;919055;-75
2021/09/07 08:46:50;;;;;;;8.20;4.27;;;;;;;;;;766933;180;918456;-73
2021/09/07 08:49:16;;;;;;;5.57;4.20;;;;;;;;;;763571;180;918765;-75
2021/09/07 08:51:42;;;;;;;5.87;4.07;;;;;;;;;;763469;180;918899;-75
2021/09/07 08:54:08;;;;;;;7.30;4.80;;;;;;;;;;772068;180;919368;-74
2021/09/07 08:56:34;;;;;;;6.97;4.60;;;;;;;;;;769062;180;918134;-74
2021/09/07 08:59:00;;;;;;;6.17;3.70;;;;;;;;;;769037;180;918654;-75
2021/09/07 09:01:26;;;;;;;9.03;4.60;;;;;;;;;;768640;180;918851;-76
2021/09/07 09:03:51;;;;;;;8.23;3.90;;;;;;;;;;765768;180;918569;-74
2021/09/07 09:06:23;;;;;;;7.13;5.43;;;;;;;;;;763288;180;918728;-76
2021/09/07 09:08:49;;;;;;;8.47;4.53;;;;;;;;;;766193;178;919284;-76
2021/09/07 09:11:15;;;;;;;6.37;4.17;;;;;;;;;;770862;180;918175;-73
2021/09/07 09:13:40;;;;;;;7.00;4.10;;;;;;;;;;766345;180;934286;-75
2021/09/07 09:16:06;;;;;;;5.53;3.85;;;;;;;;;;768094;180;919321;-75
2021/09/07 09:18:33;;;;;;;5.43;3.30;;;;;;;;;;774374;180;921428;-76
2021/09/07 09:20:59;;;;;;;5.25;3.70;;;;;;;;;;769352;180;918932;-75
2021/09/07 09:23:25;;;;;;;5.70;3.83;;;;;;;;;;760154;183;942654;-75
2021/09/07 09:25:50;;;;;;;7.30;4.50;;;;;;;;;;771994;180;918170;-73
2021/09/07 09:28:16;;;;;;;8.13;3.80;;;;;;;;;;768498;180;918810;-74
2021/09/07 09:30:44;;;;;;;6.20;4.23;;;;;;;;;;763193;180;930707;-74
2021/09/07 09:33:10;;;;;;;4.53;2.97;;;;;;;;;;761962;181;923972;-74
2021/09/07 09:35:42;;;;;;;7.90;4.20;;;;;;;;;;765953;180;922533;-72
2021/09/07 09:38:08;;;;;;;7.40;4.33;;;;;;;;;;767960;180;943395;-74
2021/09/07 09:40:34;;;;;;;4.40;3.10;;;;;;;;;;767136;180;1002345;-75
2021/09/07 09:43:16;;;;;;;6.27;4.00;;;;;;;;;;762427;180;918787;-73
2021/09/07 09:45:41;;;;;;;6.87;3.53;;;;;;;;;;763918;180;929372;-74
2021/09/07 09:48:07;;;;;;;6.67;3.80;;;;;;;;;;774614;180;922776;-74
2021/09/07 09:50:36;;;;;;;6.83;3.67;;;;;;;;;;770395;180;921602;-74
2021/09/07 09:53:00;;;;;;;6.37;4.07;;;;;;;;;;766091;180;919621;-71
2021/09/07 09:55:25;;;;;;;6.60;3.60;;;;;;;;;;771817;180;933017;-74
2021/09/07 09:57:51;;;;;;;9.30;4.70;;;;;;;;;;764880;180;918844;-77
2021/09/07 10:00:17;;;;;;;7.97;4.97;;;;;;;;;;766272;180;1019913;-74
2021/09/07 10:02:43;;;;;;;9.27;6.53;;;;;;;;;;771823;180;918483;-73
2021/09/07 10:05:09;;;;;;;6.17;4.23;;;;;;;;;;770924;180;918980;-75
2021/09/07 10:07:35;;;;;;;8.60;5.03;;;;;;;;;;768251;180;920258;-73
2021/09/07 10:10:01;;;;;;;7.30;4.90;;;;;;;;;;766727;180;919612;-73
2021/09/07 10:12:28;;;;;;;7.53;4.87;;;;;;;;;;766020;183;918783;-75
2021/09/07 10:15:03;;;;;;;8.87;4.87;;;;;;;;;;767470;180;917750;-75
2021/09/07 10:17:28;;;;;;;5.70;4.10;;;;;;;;;;767488;180;919510;-74
2021/09/07 10:19:58;;;;;;;7.97;5.30;;;;;;;;;;761462;181;919340;-74
2021/09/07 10:24:53;;;;;;;7.13;5.00;;;;;;;;;;765458;179;916746;-75
2021/09/07 10:27:19;;;;;;;6.27;5.10;;;;;;;;;;768805;178;918706;-74
2021/09/07 10:29:45;;;;;;;8.30;6.07;;;;;;;;;;774787;180;918782;-75
2021/09/07 10:32:16;;;;;;;9.20;5.53;;;;;;;;;;769993;180;936282;-73
2021/09/07 10:34:48;;;;;;;8.30;5.03;;;;;;;;;;772633;180;918815;-75
2021/09/07 10:37:15;;;;;;;8.83;5.53;;;;;;;;;;773915;180;918895;-73
2021/09/07 10:39:40;;;;;;;9.38;5.78;;;;;;;;;;775869;180;919341;-74
2021/09/07 10:42:06;;;;;;;7.27;5.03;;;;;;;;;;768547;180;916100;-74
2021/09/07 10:44:32;;;;;;;7.03;4.40;;;;;;;;;;766872;180;918851;-74
2021/09/07 10:46:59;;;;;;;12.00;6.20;;;;;;;;;;764507;182;918781;-73
2021/09/07 10:49:45;;;;;;;9.25;4.57;;;;;;;;;;767043;183;918785;-73
2021/09/07 10:52:12;;;;;;;8.93;4.80;;;;;;;;;;769807;183;920407;-74
2021/09/07 10:54:39;;;;;;;9.03;5.03;;;;;;;;;;764235;180;918960;-74
2021/09/07 10:57:05;;;;;;;7.60;5.07;;;;;;;;;;766610;180;1021177;-76
2021/09/07 10:59:36;;;;;;;6.97;5.17;;;;;;;;;;771590;180;919137;-73
2021/09/07 11:02:08;;;;;;;9.60;5.80;;;;;;;;;;768073;183;910958;-73
2021/09/07 11:04:34;;;;;;;9.27;5.00;;;;;;;;;;768823;180;918944;-74
2021/09/07 11:07:00;;;;;;;7.77;4.70;;;;;;;;;;765750;180;919013;-74
2021/09/07 11:09:32;;;;;;;9.17;5.13;;;;;;;;;;771916;180;919351;-75
2021/09/07 11:12:04;;;;;;;9.40;4.10;;;;;;;;;;767735;179;1020989;-71
2021/09/07 11:14:29;;;;;;;6.57;4.47;;;;;;;;;;769116;180;935243;-73
2021/09/07 11:16:57;;;;;;;6.87;4.33;;;;;;;;;;765940;180;926232;-73
2021/09/07 11:19:21;;;;;;;5.87;3.93;;;;;;;;;;772144;180;918819;-74
2021/09/07 11:21:47;;;;;;;7.33;3.97;;;;;;;;;;763184;182;919868;-74
2021/09/07 11:24:18;;;;;;;8.93;4.33;;;;;;;;;;767894;180;919609;-74
2021/09/07 11:26:44;;;;;;;7.07;4.47;;;;;;;;;;762414;180;918465;-73
2021/09/07 11:29:09;;;;;;;8.00;5.20;;;;;;;;;;771004;180;918331;-74
2021/09/07 11:31:36;;;;;;;6.33;4.97;;;;;;;;;;761184;181;918801;-75
2021/09/07 11:34:02;;;;;;;14.23;4.35;;;;;;;;;;769432;180;917954;-72
2021/09/07 11:36:27;;;;;;;7.27;4.63;;;;;;;;;;768510;180;889885;-72
2021/09/07 11:38:53;;;;;;;9.33;5.03;;;;;;;;;;771398;179;649197;-75
2021/09/07 11:41:19;;;;;;;6.25;4.90;;;;;;;;;;773519;180;816333;-74
2021/09/07 11:43:45;;;;;;;6.68;4.70;;;;;;;;;;773347;180;918169;-72
2021/09/07 11:46:16;;;;;;;7.97;4.20;;;;;;;;;;767884;184;919124;-73
2021/09/07 11:48:43;;;;;;;9.43;5.87;;;;;;;;;;770684;180;918615;-72
2021/09/07 11:51:08;;;;;;;7.87;5.50;;;;;;;;;;768799;180;919601;-72
2021/09/07 11:53:34;;;;;;;8.20;5.90;;;;;;;;;;769100;181;918932;-72
2021/09/07 11:56:00;;;;;;;7.50;4.87;;;;;;;;;;767972;180;919463;-72
2021/09/07 11:58:26;;;;;;;8.80;5.47;;;;;;;;;;760376;181;918306;-73
2021/09/07 12:00:57;;;;;;;7.55;5.57;;;;;;;;;;772868;180;918222;-70
2021/09/07 12:03:22;;;;;;;7.80;5.07;;;;;;;;;;767921;183;918222;-71
2021/09/07 12:05:51;;;;;;;9.80;5.80;;;;;;;;;;767216;180;917446;-72
2021/09/07 12:08:17;;;;;;;7.50;5.90;;;;;;;;;;771550;180;918985;-72
2021/09/07 12:10:48;;;;;;;10.93;6.10;;;;;;;;;;776263;180;918641;-73
2021/09/07 12:13:19;;;;;;;7.30;4.90;;;;;;;;;;768943;182;919051;-70
2021/09/07 12:15:45;;;;;;;8.27;5.43;;;;;;;;;;766415;180;919360;-73
2021/09/07 12:18:11;;;;;;;10.70;5.60;;;;;;;;;;764658;180;918331;-72
2021/09/07 12:20:36;;;;;;;9.47;5.67;;;;;;;;;;771488;180;925626;-70
2021/09/07 12:23:03;;;;;;;10.93;5.53;;;;;;;;;;766076;180;919166;-71
2021/09/07 12:25:28;;;;;;;8.37;4.97;;;;;;;;;;769443;180;918338;-70
2021/09/07 12:27:54;;;;;;;10.40;6.07;;;;;;;;;;777215;180;918940;-71
2021/09/07 12:30:30;;;;;;;10.83;5.87;;;;;;;;;;763846;183;918700;-71
2021/09/07 12:32:54;;;;;;;8.90;6.23;;;;;;;;;;768688;180;918591;-72
2021/09/07 12:35:26;;;;;;;8.73;5.80;;;;;;;;;;767911;180;919392;-72
2021/09/07 12:37:52;;;;;;;9.70;5.90;;;;;;;;;;767162;180;934637;-73
2021/09/07 12:40:18;;;;;;;8.30;6.00;;;;;;;;;;764314;183;927530;-72
2021/09/07 12:42:44;;;;;;;9.23;5.83;;;;;;;;;;772578;180;951097;-72
2021/09/07 12:45:10;;;;;;;10.70;5.90;;;;;;;;;;761883;180;925018;-72
2021/09/07 12:47:35;;;;;;;9.00;5.10;;;;;;;;;;765929;180;918340;-72
2021/09/07 12:50:01;;;;;;;12.05;5.28;;;;;;;;;;769183;180;918076;-72
2021/09/07 12:52:27;;;;;;;7.40;5.00;;;;;;;;;;768295;180;934029;-71
2021/09/07 12:54:53;;;;;;;12.17;6.20;;;;;;;;;;771346;180;918679;-73
2021/09/07 12:57:19;;;;;;;7.83;5.27;;;;;;;;;;764191;180;919063;-71
2021/09/07 12:59:45;;;;;;;9.80;5.70;;;;;;;;;;768041;180;918246;-73
2021/09/07 13:02:12;;;;;;;9.20;5.07;;;;;;;;;;770753;180;918562;-71
2021/09/07 13:04:38;;;;;;;9.67;5.57;;;;;;;;;;763702;183;918998;-71
2021/09/07 13:07:04;;;;;;;7.90;6.10;;;;;;;;;;771972;180;918942;-72
2021/09/07 13:09:29;;;;;;;8.50;6.00;;;;;;;;;;766090;180;919085;-71
2021/09/07 13:11:55;;;;;;;8.60;6.10;;;;;;;;;;770927;180;917946;-74
2021/09/07 13:14:21;;;;;;;9.00;5.97;;;;;;;;;;768589;180;918968;-73
2021/09/07 13:16:47;;;;;;;8.20;5.97;;;;;;;;;;766994;180;917391;-72
2021/09/07 13:19:13;;;;;;;9.40;5.90;;;;;;;;;;770667;180;917335;-72
2021/09/07 13:21:39;;;;;;;7.90;5.80;;;;;;;;;;771305;180;932657;-71
2021/09/07 13:24:04;;;;;;;12.07;6.77;;;;;;;;;;772273;180;918573;-71
2021/09/07 13:26:30;;;;;;;9.32;6.12;;;;;;;;;;771156;181;876793;-72
2021/09/07 13:28:56;;;;;;;16.47;7.33;;;;;;;;;;766747;180;915877;-73
2021/09/07 13:31:22;;;;;;;11.07;6.45;;;;;;;;;;769587;180;922616;-72
2021/09/07 13:33:48;;;;;;;11.90;5.57;;;;;;;;;;763198;180;915831;-71
2021/09/07 13:36:18;;;;;;;7.97;5.70;;;;;;;;;;770546;180;923105;-72
2021/09/07 13:38:43;;;;;;;9.80;5.90;;;;;;;;;;763603;180;914333;-72
2021/09/07 13:41:09;;;;;;;9.13;7.13;;;;;;;;;;764681;180;921881;-70
2021/09/07 13:43:35;;;;;;;10.20;6.80;;;;;;;;;;770651;180;915538;-73
2021/09/07 13:46:01;;;;;;;9.00;7.17;;;;;;;;;;768405;180;927143;-73
2021/09/07 13:48:27;;;;;;;7.80;5.50;;;;;;;;;;767411;180;949862;-73
2021/09/07 13:50:53;;;;;;;9.50;6.30;;;;;;;;;;768923;180;914709;-72
2021/09/07 13:53:19;;;;;;;14.53;6.67;;;;;;;;;;760948;184;917311;-73
2021/09/07 13:55:44;;;;;;;10.73;5.73;;;;;;;;;;767098;180;916986;-71
2021/09/07 13:58:10;;;;;;;6.40;5.40;;;;;;;;;;764453;180;912444;-73
2021/09/07 14:00:36;;;;;;;9.50;6.07;;;;;;;;;;770381;180;911795;-73
2021/09/07 14:03:02;;;;;;;10.80;5.83;;;;;;;;;;770399;180;912236;-73
2021/09/07 14:05:28;;;;;;;9.40;5.57;;;;;;;;;;769255;179;918319;-73
2021/09/07 14:07:54;;;;;;;9.40;6.13;;;;;;;;;;774601;180;918909;-73
2021/09/07 14:10:20;;;;;;;9.10;6.10;;;;;;;;;;769602;180;919498;-74
2021/09/07 14:12:46;;;;;;;9.02;5.75;;;;;;;;;;764711;180;919285;-72
2021/09/07 14:15:12;;;;;;;10.00;6.75;;;;;;;;;;773459;180;919062;-72